Terminal Aerodrome Forecast
Issued by NWS

Home | Current Version | Previous Version | Text Only | Print | Product List | Glossary On
Versions: 1 2 3 4 5 6 7 8 9 10 11 12 13 14 15 16 17 18 19 20 21 22 23 24
000
FTUS43 KTOP 241100
TAFMHK
TAF
KMHK 241120Z 2412/2512 VRB03KT 1/2SM FG VV004
     FM241400 16009KT P6SM VCSH BKN012
     FM241900 19011KT P6SM -SHRA BKN035
      TEMPO 2421/2501 4SM -TSRA OVC015CB
     FM250200 15005KT P6SM BKN015
     FM250600 19006KT P6SM SCT015 BKN040=

USA.gov is the U.S. government's official web portal to all federal, state and local government web resources and services.